createdAt,value
2023-03-25T00:01:42.682Z,97973.94
2023-03-25T00:03:51.137Z,97977.75
2023-03-25T00:05:55.237Z,97981.63
2023-03-25T00:07:57.822Z,97976.19
2023-03-25T00:10:00.562Z,97973.44
2023-03-25T00:12:03.279Z,97981.13
2023-03-25T00:14:05.960Z,97975.53
2023-03-25T00:16:10.407Z,97977.94
2023-03-25T00:18:13.793Z,97981.75
2023-03-25T00:20:16.640Z,97984.50
2023-03-25T00:22:19.461Z,97989.94
2023-03-25T00:24:22.149Z,97981.94
2023-03-25T00:26:24.735Z,97986.28
2023-03-25T00:28:31.132Z,97995.56
2023-03-25T00:30:34.018Z,97983.56
2023-03-25T00:32:36.779Z,97988.22
2023-03-25T00:34:47.770Z,97992.22
2023-03-25T00:36:50.528Z,98002.94
2023-03-25T00:38:53.460Z,98004.84
2023-03-25T00:40:56.057Z,98004.22
2023-03-25T00:42:58.692Z,98011.13
2023-03-25T00:45:01.655Z,98014.47
2023-03-25T00:47:06.115Z,98010.94
2023-03-25T00:49:10.144Z,98008.88
2023-03-25T00:51:14.669Z,98020.25
2023-03-25T00:53:17.343Z,98021.34
2023-03-25T00:55:20.960Z,98023.13
2023-03-25T00:57:23.638Z,98022.47
2023-03-25T00:59:26.495Z,98026.97
2023-03-25T01:01:29.797Z,98028.72
2023-03-25T01:03:32.534Z,98038.00
2023-03-25T01:05:35.428Z,98037.69
2023-03-25T01:07:39.872Z,98047.75
2023-03-25T01:09:45.600Z,98049.69
2023-03-25T01:11:49.469Z,98049.53
2023-03-25T01:13:52.403Z,98050.16
2023-03-25T01:15:55.055Z,98049.84
2023-03-25T01:17:57.721Z,98050.16
2023-03-25T01:20:00.459Z,98048.56
2023-03-25T01:22:03.295Z,98051.28
2023-03-25T01:24:08.301Z,98059.44
2023-03-25T01:26:13.257Z,98053.22
2023-03-25T01:28:16.011Z,98054.81
2023-03-25T01:30:18.759Z,98062.81
2023-03-25T01:32:21.435Z,98068.88
2023-03-25T01:34:24.958Z,98061.50
2023-03-25T01:36:31.251Z,98062.63
2023-03-25T01:38:34.712Z,98075.75
2023-03-25T01:40:37.440Z,98076.38
2023-03-25T01:42:40.087Z,98077.19
2023-03-25T01:44:46.255Z,98083.91
2023-03-25T01:46:54.012Z,98079.59
2023-03-25T01:49:00.671Z,98081.53
2023-03-25T01:51:14.778Z,98089.69
2023-03-25T01:53:17.598Z,98101.19
2023-03-25T01:55:20.625Z,98095.25
2023-03-25T01:57:26.160Z,98101.03
2023-03-25T01:59:29.644Z,98106.78
2023-03-25T02:01:32.688Z,98095.59
2023-03-25T02:03:37.411Z,98107.91
2023-03-25T02:05:55.264Z,98116.53
2023-03-25T02:07:58.514Z,98125.16
2023-03-25T02:10:05.048Z,98111.09
2023-03-25T02:12:08.113Z,98111.09
2023-03-25T02:14:15.934Z,98114.63
2023-03-25T02:16:24.536Z,98115.72
2023-03-25T02:18:38.030Z,98116.84
2023-03-25T02:21:03.703Z,98116.66
2023-03-25T02:23:28.529Z,98133.63
2023-03-25T02:25:35.641Z,98132.03
2023-03-25T02:28:02.570Z,98133.13
2023-03-25T02:30:25.899Z,98151.69
2023-03-25T02:33:05.592Z,98143.84
2023-03-25T02:35:32.189Z,98146.09
2023-03-25T02:38:17.374Z,98147.81
2023-03-25T02:40:27.005Z,98154.69
2023-03-25T02:42:32.351Z,98145.41
2023-03-25T02:44:59.092Z,98151.47
2023-03-25T02:47:07.985Z,98157.22
2023-03-25T02:49:27.464Z,98152.28
2023-03-25T02:51:42.828Z,98156.63
2023-03-25T02:53:48.563Z,98156.13
2023-03-25T02:55:54.286Z,98158.34
2023-03-25T02:57:59.503Z,98171.94
2023-03-25T03:00:10.969Z,98174.97
2023-03-25T03:02:16.035Z,98186.66
2023-03-25T03:04:18.651Z,98178.81
2023-03-25T03:06:23.013Z,98186.34
2023-03-25T03:08:44.902Z,98194.50
2023-03-25T03:10:47.413Z,98182.81
2023-03-25T03:13:16.943Z,98189.06
2023-03-25T03:15:51.777Z,98212.41
2023-03-25T03:18:03.802Z,98204.25
2023-03-25T03:20:35.441Z,98206.16
2023-03-25T03:22:52.973Z,98204.56
2023-03-25T03:25:32.454Z,98220.25
2023-03-25T03:27:43.490Z,98213.22
2023-03-25T03:29:49.896Z,98210.63
2023-03-25T03:32:18.913Z,98214.31
2023-03-25T03:34:45.177Z,98222.47
2023-03-25T03:36:52.038Z,98226.47
2023-03-25T03:39:02.020Z,98215.78
2023-03-25T03:41:14.026Z,98208.13
2023-03-25T03:43:22.027Z,98215.50
2023-03-25T03:45:50.816Z,98224.16
2023-03-25T03:47:57.513Z,98220.78
2023-03-25T03:50:07.202Z,98219.66
2023-03-25T03:52:18.291Z,98224.50
2023-03-25T03:54:53.225Z,98229.94
2023-03-25T03:57:07.833Z,98228.81
2023-03-25T03:59:21.265Z,98234.56
2023-03-25T04:01:34.002Z,98230.72
2023-03-25T04:04:01.332Z,98237.16
2023-03-25T04:06:16.446Z,98254.28
2023-03-25T04:08:59.026Z,98253.59
2023-03-25T04:11:10.685Z,98253.59
2023-03-25T04:13:16.710Z,98255.22
2023-03-25T04:15:19.592Z,98262.69
2023-03-25T04:17:24.344Z,98263.66
2023-03-25T04:19:27.647Z,98258.44
2023-03-25T04:21:30.283Z,98269.66
2023-03-25T04:23:34.366Z,98261.84
2023-03-25T04:25:37.007Z,98262.16
2023-03-25T04:27:39.824Z,98271.47
2023-03-25T04:29:44.210Z,98271.66
2023-03-25T04:31:50.127Z,98266.22
2023-03-25T04:33:53.162Z,98280.81
2023-03-25T04:35:55.872Z,98284.03
2023-03-25T04:37:58.654Z,98283.53
2023-03-25T04:40:01.386Z,98283.03
2023-03-25T04:42:06.081Z,98289.28
2023-03-25T04:44:08.910Z,98289.47
2023-03-25T04:46:14.605Z,98287.53
2023-03-25T04:48:23.944Z,98294.75
2023-03-25T04:50:29.109Z,98297.16
2023-03-25T04:52:31.799Z,98302.78
2023-03-25T04:54:34.370Z,98304.03
2023-03-25T04:56:37.005Z,98309.81
2023-03-25T04:58:40.952Z,98314.91
2023-03-25T05:00:45.787Z,98313.47
2023-03-25T05:02:54.216Z,98315.72
2023-03-25T05:05:02.523Z,98308.88
2023-03-25T05:07:06.023Z,98309.81
2023-03-25T05:09:14.715Z,98310.66
2023-03-25T05:11:17.314Z,98310.31
2023-03-25T05:13:21.090Z,98315.44
2023-03-25T05:15:24.109Z,98316.91
2023-03-25T05:17:27.204Z,98320.94
2023-03-25T05:19:29.987Z,98318.69
2023-03-25T05:21:36.623Z,98316.78
2023-03-25T05:23:39.842Z,98315.50
2023-03-25T05:25:43.024Z,98322.38
2023-03-25T05:27:46.892Z,98324.00
2023-03-25T05:29:49.602Z,98315.50
2023-03-25T05:31:52.323Z,98323.69
2023-03-25T05:33:55.160Z,98333.63
2023-03-25T05:35:57.819Z,98321.16
2023-03-25T05:38:00.680Z,98330.16
2023-03-25T05:40:04.247Z,98337.38
2023-03-25T05:42:19.624Z,98340.72
2023-03-25T05:44:22.240Z,98337.03
2023-03-25T05:46:24.842Z,98335.47
2023-03-25T05:48:27.502Z,98348.00
2023-03-25T05:50:30.474Z,98353.78
2023-03-25T05:52:33.311Z,98351.22
2023-03-25T05:54:41.764Z,98357.66
2023-03-25T05:56:44.370Z,98356.66
2023-03-25T05:58:48.609Z,98364.38
2023-03-25T06:00:51.769Z,98362.16
2023-03-25T06:02:55.323Z,98358.47
2023-03-25T06:04:58.295Z,98372.13
2023-03-25T06:07:01.757Z,98377.72
2023-03-25T06:09:04.528Z,98377.56
2023-03-25T06:11:09.400Z,98366.69
2023-03-25T06:13:12.061Z,98377.41
2023-03-25T06:15:18.366Z,98388.81
2023-03-25T06:17:25.190Z,98398.59
2023-03-25T06:19:27.792Z,98391.19
2023-03-25T06:21:33.428Z,98384.00
2023-03-25T06:23:36.241Z,98378.09
2023-03-25T06:25:38.877Z,98387.53
2023-03-25T06:27:41.624Z,98371.81
2023-03-25T06:29:44.485Z,98386.44
2023-03-25T06:31:47.039Z,98381.16
2023-03-25T06:33:51.063Z,98381.31
2023-03-25T06:35:55.128Z,98385.19
2023-03-25T06:37:57.805Z,98388.09
2023-03-25T06:40:02.377Z,98404.28
2023-03-25T06:42:07.512Z,98399.31
2023-03-25T06:44:10.808Z,98407.81
2023-03-25T06:46:13.885Z,98410.34
2023-03-25T06:48:16.501Z,98405.38
2023-03-25T06:50:19.241Z,98401.22
2023-03-25T06:52:22.175Z,98405.41
2023-03-25T06:54:25.010Z,98409.91
2023-03-25T06:56:28.305Z,98406.53
2023-03-25T06:58:35.370Z,98412.78
2023-03-25T07:00:38.723Z,98404.28
2023-03-25T07:02:41.663Z,98412.00
2023-03-25T07:04:44.722Z,98396.59
2023-03-25T07:06:47.701Z,98404.59
2023-03-25T07:08:51.207Z,98400.59
2023-03-25T07:10:53.851Z,98393.84
2023-03-25T07:12:56.981Z,98403.44
2023-03-25T07:14:59.805Z,98391.09
2023-03-25T07:17:02.408Z,98395.28
2023-03-25T07:19:05.117Z,98406.34
2023-03-25T07:21:07.909Z,98410.53
2023-03-25T07:23:10.587Z,98408.06
2023-03-25T07:25:13.249Z,98412.22
2023-03-25T07:27:16.162Z,98413.31
2023-03-25T07:29:19.187Z,98410.56
2023-03-25T07:31:22.158Z,98410.38
2023-03-25T07:33:24.877Z,98414.41
2023-03-25T07:35:27.616Z,98418.47
2023-03-25T07:37:30.441Z,98426.00
2023-03-25T07:39:33.077Z,98410.41
2023-03-25T07:41:36.094Z,98432.72
2023-03-25T07:43:39.581Z,98434.50
2023-03-25T07:45:44.579Z,98429.03
2023-03-25T07:47:50.551Z,98426.94
2023-03-25T07:49:53.261Z,98420.97
2023-03-25T07:51:55.887Z,98420.25
2023-03-25T07:54:05.002Z,98424.13
2023-03-25T07:56:08.639Z,98421.88
2023-03-25T07:58:11.605Z,98437.13
2023-03-25T08:00:14.604Z,98435.81
2023-03-25T08:02:17.383Z,98431.09
2023-03-25T08:04:20.068Z,98429.09
2023-03-25T08:06:22.805Z,98426.59
2023-03-25T08:08:25.554Z,98428.97
2023-03-25T08:10:28.448Z,98429.38
2023-03-25T08:12:31.233Z,98432.06
2023-03-25T08:14:33.883Z,98436.19
2023-03-25T08:16:36.591Z,98434.59
2023-03-25T08:18:39.730Z,98435.72
2023-03-25T08:20:42.415Z,98439.94
2023-03-25T08:22:45.981Z,98429.25
2023-03-25T08:24:48.622Z,98434.66
2023-03-25T08:26:51.227Z,98411.38
2023-03-25T08:28:58.207Z,98420.97
2023-03-25T08:31:02.589Z,98419.84
2023-03-25T08:33:07.617Z,98424.97
2023-03-25T08:35:10.591Z,98421.22
2023-03-25T08:37:15.589Z,98423.50
2023-03-25T08:39:18.589Z,98424.63
2023-03-25T08:41:21.459Z,98427.63
2023-03-25T08:43:24.229Z,98419.66
2023-03-25T08:45:26.917Z,98428.13
2023-03-25T08:47:29.822Z,98420.91
2023-03-25T08:49:32.488Z,98422.88
2023-03-25T08:51:35.574Z,98422.09
2023-03-25T08:53:38.509Z,98411.72
2023-03-25T08:55:41.274Z,98409.31
2023-03-25T08:57:43.953Z,98413.44
2023-03-25T08:59:46.733Z,98417.66
2023-03-25T09:01:49.686Z,98417.22
2023-03-25T09:03:52.723Z,98406.91
2023-03-25T09:05:55.477Z,98408.06
2023-03-25T09:07:58.152Z,98403.50
2023-03-25T09:10:00.797Z,98410.47
2023-03-25T09:12:04.333Z,98420.50
2023-03-25T09:14:07.150Z,98411.59
2023-03-25T09:16:10.455Z,98407.50
2023-03-25T09:18:13.272Z,98391.25
2023-03-25T09:20:16.769Z,98405.19
2023-03-25T09:22:19.396Z,98411.56
2023-03-25T09:24:23.972Z,98403.44
2023-03-25T09:26:26.731Z,98418.75
2023-03-25T09:28:29.886Z,98402.94
2023-03-25T09:30:32.640Z,98392.06
2023-03-25T09:32:35.461Z,98410.16
2023-03-25T09:34:39.701Z,98410.38
2023-03-25T09:36:42.821Z,98393.69
2023-03-25T09:38:45.928Z,98403.41
2023-03-25T09:40:49.079Z,98386.63
2023-03-25T09:43:03.567Z,98410.06
2023-03-25T09:45:29.476Z,98413.94
2023-03-25T09:47:34.429Z,98404.38
2023-03-25T09:49:44.694Z,98407.88
2023-03-25T09:51:49.074Z,98406.69
2023-03-25T09:54:20.768Z,98410.31
2023-03-25T09:56:26.335Z,98399.25
2023-03-25T09:58:38.306Z,98413.44
2023-03-25T10:00:41.491Z,98406.25
2023-03-25T10:02:52.547Z,98397.00
2023-03-25T10:05:31.422Z,98401.91
2023-03-25T10:07:58.427Z,98401.09
2023-03-25T10:10:38.797Z,98407.09
2023-03-25T10:12:59.011Z,98416.38
2023-03-25T10:15:27.218Z,98392.16
2023-03-25T10:17:57.217Z,98394.53
2023-03-25T10:20:21.154Z,98392.38
2023-03-25T10:22:29.388Z,98395.75
2023-03-25T10:24:38.499Z,98387.94
2023-03-25T10:26:47.778Z,98388.56
2023-03-25T10:29:02.116Z,98379.25
2023-03-25T10:31:09.617Z,98380.16
2023-03-25T10:33:38.420Z,98384.50
2023-03-25T10:35:47.737Z,98380.25
2023-03-25T10:37:53.822Z,98375.47
2023-03-25T10:40:08.678Z,98374.91
2023-03-25T10:42:21.125Z,98381.47
2023-03-25T10:44:26.879Z,98372.34
2023-03-25T10:46:58.880Z,98378.13
2023-03-25T10:49:01.619Z,98372.72
2023-03-25T10:51:20.373Z,98376.59
2023-03-25T10:53:26.058Z,98378.81
2023-03-25T10:55:33.140Z,98366.25
2023-03-25T10:57:36.147Z,98367.41
2023-03-25T11:00:12.894Z,98367.13
2023-03-25T11:02:28.248Z,98364.66
2023-03-25T11:04:38.895Z,98355.81
2023-03-25T11:06:46.045Z,98362.59
2023-03-25T11:08:58.718Z,98363.50
2023-03-25T11:11:03.844Z,98358.13
2023-03-25T11:13:13.348Z,98359.53
2023-03-25T11:15:17.879Z,98364.19
2023-03-25T11:17:25.739Z,98366.19
2023-03-25T11:19:30.679Z,98362.91
2023-03-25T11:21:35.667Z,98361.78
2023-03-25T11:23:43.073Z,98367.34
2023-03-25T11:25:46.178Z,98363.28
2023-03-25T11:28:19.460Z,98367.84
2023-03-25T11:30:24.546Z,98345.09
2023-03-25T11:32:38.868Z,98348.09
2023-03-25T11:34:44.434Z,98340.22
2023-03-25T11:36:55.254Z,98344.91
2023-03-25T11:39:04.573Z,98349.59
2023-03-25T11:41:07.705Z,98346.94
2023-03-25T11:43:10.902Z,98339.53
2023-03-25T11:45:37.921Z,98344.16
2023-03-25T11:47:42.311Z,98330.00
2023-03-25T11:49:49.762Z,98334.03
2023-03-25T11:52:00.638Z,98332.94
2023-03-25T11:54:08.660Z,98321.22
2023-03-25T11:56:16.180Z,98328.56
2023-03-25T11:58:22.187Z,98318.50
2023-03-25T12:00:38.126Z,98322.34
2023-03-25T12:02:41.331Z,98319.09
2023-03-25T12:05:03.572Z,98321.09
2023-03-25T12:07:10.543Z,98316.03
2023-03-25T12:09:13.226Z,98309.16
2023-03-25T12:11:18.910Z,98305.22
2023-03-25T12:13:33.558Z,98301.41
2023-03-25T12:16:07.048Z,98302.47
2023-03-25T12:18:39.698Z,98310.19
2023-03-25T12:21:04.410Z,98314.28
2023-03-25T12:23:15.767Z,98303.34
2023-03-25T12:25:42.363Z,98307.63
2023-03-25T12:28:05.462Z,98305.47
2023-03-25T12:30:27.576Z,98298.50
2023-03-25T12:32:57.852Z,98293.38
2023-03-25T12:35:18.496Z,98292.00
2023-03-25T12:37:39.624Z,98286.06
2023-03-25T12:40:05.395Z,98278.25
2023-03-25T12:42:47.003Z,98270.38
2023-03-25T12:45:05.632Z,98264.25
2023-03-25T12:47:26.331Z,98270.63
2023-03-25T12:49:56.960Z,98269.94
2023-03-25T12:52:29.043Z,98279.53
2023-03-25T12:55:08.558Z,98281.25
2023-03-25T12:57:27.686Z,98289.00
2023-03-25T12:59:53.954Z,98275.03
2023-03-25T13:02:10.236Z,98281.78
2023-03-25T13:04:54.916Z,98276.53
2023-03-25T13:07:03.049Z,98260.22
2023-03-25T13:09:25.948Z,98275.72
2023-03-25T13:12:04.144Z,98263.63
2023-03-25T13:14:15.979Z,98261.81
2023-03-25T13:16:25.181Z,98252.19
2023-03-25T13:18:50.356Z,98241.72
2023-03-25T13:21:13.818Z,98246.03
2023-03-25T13:23:23.190Z,98243.56
2023-03-25T13:25:43.073Z,98238.31
2023-03-25T13:27:46.932Z,98231.41
2023-03-25T13:29:52.059Z,98222.63
2023-03-25T13:31:58.649Z,98213.69
2023-03-25T13:34:14.316Z,98233.16
2023-03-25T13:36:35.930Z,98231.38
2023-03-25T13:38:47.224Z,98234.22
2023-03-25T13:40:54.454Z,98229.16
2023-03-25T13:43:13.682Z,98233.25
2023-03-25T13:45:27.631Z,98231.97
2023-03-25T13:47:43.602Z,98225.91
2023-03-25T13:49:58.269Z,98219.94
2023-03-25T13:52:02.101Z,98217.28
2023-03-25T13:54:14.797Z,98217.31
2023-03-25T13:56:49.077Z,98201.53
2023-03-25T13:59:26.183Z,98197.09
2023-03-25T14:02:01.864Z,98198.41
2023-03-25T14:04:19.720Z,98186.34
2023-03-25T14:06:40.453Z,98186.13
2023-03-25T14:09:13.851Z,98183.66
2023-03-25T14:11:19.010Z,98185.28
2023-03-25T14:13:36.814Z,98183.25
2023-03-25T14:15:45.863Z,98182.84
2023-03-25T14:17:51.201Z,98177.81
2023-03-25T14:19:58.458Z,98171.97
2023-03-25T14:22:27.639Z,98157.47
2023-03-25T14:24:33.510Z,98159.41
2023-03-25T14:26:41.856Z,98163.91
2023-03-25T14:28:47.942Z,98149.38
2023-03-25T14:31:17.134Z,98155.13
2023-03-25T14:33:19.883Z,98150.69
2023-03-25T14:35:34.748Z,98150.22
2023-03-25T14:37:38.058Z,98150.91
2023-03-25T14:39:41.238Z,98145.34
2023-03-25T14:42:04.353Z,98150.50
2023-03-25T14:44:19.969Z,98147.31
2023-03-25T14:46:39.178Z,98149.50
2023-03-25T14:49:22.610Z,98143.44
2023-03-25T14:51:28.595Z,98150.53
2023-03-25T14:53:31.405Z,98147.59
2023-03-25T14:55:47.566Z,98143.59
2023-03-25T14:57:52.527Z,98148.72
2023-03-25T15:00:01.612Z,98143.59
2023-03-25T15:02:14.212Z,98141.88
2023-03-25T15:04:27.284Z,98141.88
2023-03-25T15:06:34.808Z,98147.25
2023-03-25T15:08:40.616Z,98148.50
2023-03-25T15:10:51.452Z,98152.72
2023-03-25T15:13:24.957Z,98152.41
2023-03-25T15:15:34.332Z,98157.41
2023-03-25T15:17:45.013Z,98148.50
2023-03-25T15:20:26.217Z,98151.38
2023-03-25T15:22:28.949Z,98147.38
2023-03-25T15:24:55.609Z,98137.22
2023-03-25T15:27:08.902Z,98143.00
2023-03-25T15:29:54.897Z,98138.00
2023-03-25T15:32:15.401Z,98143.00
2023-03-25T15:34:46.758Z,98143.47
2023-03-25T15:37:19.457Z,98132.06
2023-03-25T15:39:30.795Z,98133.09
2023-03-25T15:42:02.642Z,98123.72
2023-03-25T15:44:30.601Z,98107.81
2023-03-25T15:46:52.218Z,98112.38
2023-03-25T15:49:21.736Z,98114.44
2023-03-25T15:51:55.052Z,98116.72
2023-03-25T15:54:23.492Z,98101.19
2023-03-25T15:56:31.987Z,98095.34
2023-03-25T15:58:48.683Z,98104.13
2023-03-25T16:00:56.328Z,98097.25
2023-03-25T16:03:02.291Z,98103.88
2023-03-25T16:05:06.990Z,98102.38
2023-03-25T16:07:14.316Z,98090.63
2023-03-25T16:09:26.694Z,98089.03
2023-03-25T16:11:31.619Z,98089.28
2023-03-25T16:13:34.262Z,98086.63
2023-03-25T16:15:37.589Z,98082.66
2023-03-25T16:17:42.253Z,98086.19
2023-03-25T16:19:51.452Z,98084.59
2023-03-25T16:21:55.510Z,98086.63
2023-03-25T16:24:05.406Z,98087.34
2023-03-25T16:26:08.074Z,98087.94
2023-03-25T16:28:17.046Z,98087.81
2023-03-25T16:30:33.386Z,98085.53
2023-03-25T16:32:36.263Z,98077.56
2023-03-25T16:34:41.405Z,98082.50
2023-03-25T16:36:46.928Z,98083.63
2023-03-25T16:38:49.819Z,98084.31
2023-03-25T16:41:01.131Z,98080.22
2023-03-25T16:43:27.515Z,98077.38
2023-03-25T16:45:30.624Z,98079.22
2023-03-25T16:47:33.915Z,98068.25
2023-03-25T16:49:38.245Z,98067.00
2023-03-25T16:51:43.592Z,98078.44
2023-03-25T16:53:50.488Z,98069.75
2023-03-25T16:56:32.796Z,98071.13
2023-03-25T16:58:39.607Z,98066.34
2023-03-25T17:00:43.531Z,98066.34
2023-03-25T17:02:48.705Z,98061.91
2023-03-25T17:04:56.512Z,98057.81
2023-03-25T17:07:09.588Z,98064.69
2023-03-25T17:09:21.079Z,98054.28
2023-03-25T17:11:28.431Z,98057.00
2023-03-25T17:13:37.757Z,98061.25
2023-03-25T17:15:40.484Z,98052.94
2023-03-25T17:17:51.533Z,98054.41
2023-03-25T17:19:55.538Z,98048.03
2023-03-25T17:22:34.539Z,98055.00
2023-03-25T17:24:41.970Z,98053.75
2023-03-25T17:26:58.471Z,98051.34
2023-03-25T17:29:06.635Z,98044.94
2023-03-25T17:31:24.844Z,98043.81
2023-03-25T17:33:35.497Z,98042.34
2023-03-25T17:35:39.966Z,98040.38
2023-03-25T17:37:42.562Z,98028.19
2023-03-25T17:39:49.198Z,98041.88
2023-03-25T17:42:00.633Z,98037.66
2023-03-25T17:44:04.321Z,98039.16
2023-03-25T17:46:07.688Z,98039.47
2023-03-25T17:48:15.983Z,98044.28
2023-03-25T17:50:22.528Z,98043.47
2023-03-25T17:52:30.124Z,98028.91
2023-03-25T17:54:35.094Z,98034.38
2023-03-25T17:56:41.184Z,98033.66
2023-03-25T17:58:44.302Z,98030.03
2023-03-25T18:00:48.176Z,98034.69
2023-03-25T18:02:51.032Z,98035.72
2023-03-25T18:04:53.727Z,98038.56
2023-03-25T18:06:56.606Z,98035.72
2023-03-25T18:08:59.441Z,98027.38
2023-03-25T18:11:02.312Z,98027.72
2023-03-25T18:13:05.555Z,98016.19
2023-03-25T18:15:09.185Z,98034.31
2023-03-25T18:17:14.708Z,98030.34
2023-03-25T18:19:25.098Z,98029.66
2023-03-25T18:21:27.738Z,98024.53
2023-03-25T18:23:31.473Z,98037.88
2023-03-25T18:25:34.347Z,98032.84
2023-03-25T18:27:43.665Z,98035.28
2023-03-25T18:29:47.652Z,98025.78
2023-03-25T18:31:51.109Z,98030.09
2023-03-25T18:33:55.974Z,98029.47
2023-03-25T18:36:00.063Z,98041.66
2023-03-25T18:38:02.835Z,98044.84
2023-03-25T18:40:23.711Z,98046.09
2023-03-25T18:42:26.488Z,98046.19
2023-03-25T18:44:30.903Z,98042.66
2023-03-25T18:46:33.797Z,98038.00
2023-03-25T18:48:36.485Z,98041.63
2023-03-25T18:50:48.446Z,98043.34
2023-03-25T18:52:51.659Z,98050.88
2023-03-25T18:54:54.270Z,98054.75
2023-03-25T18:56:57.032Z,98055.44
2023-03-25T18:58:59.737Z,98060.22
2023-03-25T19:01:04.399Z,98058.19
2023-03-25T19:03:07.134Z,98056.34
2023-03-25T19:05:09.875Z,98046.63
2023-03-25T19:07:12.814Z,98050.28
2023-03-25T19:09:18.537Z,98048.78
2023-03-25T19:11:22.445Z,98038.22
2023-03-25T19:13:25.443Z,98055.31
2023-03-25T19:15:29.619Z,98049.56
2023-03-25T19:17:32.321Z,98057.09
2023-03-25T19:19:36.266Z,98052.88
2023-03-25T19:21:39.240Z,98054.47
2023-03-25T19:23:43.154Z,98054.09
2023-03-25T19:25:49.088Z,98047.13
2023-03-25T19:27:51.858Z,98060.84
2023-03-25T19:29:54.692Z,98059.78
2023-03-25T19:31:57.600Z,98057.41
2023-03-25T19:34:01.352Z,98059.78
2023-03-25T19:36:04.586Z,98073.16
2023-03-25T19:38:07.969Z,98068.47
2023-03-25T19:40:11.642Z,98056.16
2023-03-25T19:42:16.110Z,98066.19
2023-03-25T19:44:18.706Z,98075.66
2023-03-25T19:46:21.500Z,98069.38
2023-03-25T19:48:24.263Z,98073.38
2023-03-25T19:50:32.286Z,98070.16
2023-03-25T19:52:34.966Z,98065.84
2023-03-25T19:54:37.916Z,98075.31
2023-03-25T19:56:40.759Z,98062.41
2023-03-25T19:58:43.403Z,98071.75
2023-03-25T20:00:46.453Z,98072.56
2023-03-25T20:02:54.131Z,98073.25
2023-03-25T20:04:56.903Z,98075.19
2023-03-25T20:06:59.593Z,98076.00
2023-03-25T20:09:02.216Z,98070.97
2023-03-25T20:11:12.227Z,98060.44
2023-03-25T20:13:14.967Z,98071.88
2023-03-25T20:15:19.211Z,98081.34
2023-03-25T20:17:21.832Z,98070.50
2023-03-25T20:19:24.548Z,98067.38
2023-03-25T20:21:27.467Z,98063.25
2023-03-25T20:23:30.987Z,98069.66
2023-03-25T20:25:33.815Z,98064.63
2023-03-25T20:27:37.228Z,98064.69
2023-03-25T20:29:39.888Z,98065.22
2023-03-25T20:31:42.773Z,98073.47
2023-03-25T20:33:46.249Z,98076.66
2023-03-25T20:35:48.997Z,98072.31
2023-03-25T20:37:52.405Z,98075.97
2023-03-25T20:39:55.141Z,98082.13
2023-03-25T20:41:57.988Z,98074.81
2023-03-25T20:44:00.851Z,98074.38
2023-03-25T20:46:04.251Z,98074.81
2023-03-25T20:48:08.882Z,98082.00
2023-03-25T20:50:14.670Z,98078.91
2023-03-25T20:52:17.363Z,98075.81
2023-03-25T20:54:20.401Z,98071.94
2023-03-25T20:56:23.064Z,98072.72
2023-03-25T20:58:27.165Z,98080.59
2023-03-25T21:00:30.112Z,98077.88
2023-03-25T21:02:33.164Z,98067.94
2023-03-25T21:04:35.818Z,98076.16
2023-03-25T21:06:38.877Z,98071.72
2023-03-25T21:08:42.534Z,98072.53
2023-03-25T21:10:47.879Z,98068.53
2023-03-25T21:12:50.576Z,98081.19
2023-03-25T21:14:53.412Z,98080.84
2023-03-25T21:16:56.272Z,98074.66
2023-03-25T21:19:02.037Z,98073.88
2023-03-25T21:21:05.547Z,98073.06
2023-03-25T21:23:09.872Z,98076.25
2023-03-25T21:25:15.082Z,98068.03
2023-03-25T21:27:17.967Z,98069.63
2023-03-25T21:29:21.138Z,98077.50
2023-03-25T21:31:24.585Z,98068.47
2023-03-25T21:33:27.371Z,98074.50
2023-03-25T21:35:31.818Z,98073.34
2023-03-25T21:37:38.104Z,98075.66
2023-03-25T21:39:40.816Z,98077.22
2023-03-25T21:41:43.470Z,98077.69
2023-03-25T21:43:47.619Z,98072.47
2023-03-25T21:45:52.769Z,98081.47
2023-03-25T21:47:55.628Z,98076.81
2023-03-25T21:49:58.267Z,98076.44
2023-03-25T21:52:01.987Z,98084.31
2023-03-25T21:54:04.766Z,98078.84
2023-03-25T21:56:10.350Z,98081.47
2023-03-25T21:58:13.206Z,98072.91
2023-03-25T22:00:18.472Z,98075.31
2023-03-25T22:02:21.686Z,98068.47
2023-03-25T22:04:24.997Z,98075.66
2023-03-25T22:06:31.032Z,98079.97
2023-03-25T22:08:34.082Z,98085.91
2023-03-25T22:10:36.844Z,98078.06
2023-03-25T22:12:39.797Z,98078.84
2023-03-25T22:14:42.430Z,98087.53
2023-03-25T22:16:45.155Z,98085.56
2023-03-25T22:18:49.015Z,98076.63
2023-03-25T22:20:52.257Z,98090.34
2023-03-25T22:22:54.875Z,98088.06
2023-03-25T22:24:57.505Z,98091.25
2023-03-25T22:27:00.237Z,98086.22
2023-03-25T22:29:06.206Z,98088.16
2023-03-25T22:31:19.956Z,98087.00
2023-03-25T22:33:22.893Z,98089.28
2023-03-25T22:35:28.860Z,98083.00
2023-03-25T22:37:31.815Z,98083.34
2023-03-25T22:39:34.659Z,98082.22
2023-03-25T22:41:38.042Z,98089.66
2023-03-25T22:43:41.364Z,98080.16
2023-03-25T22:45:44.430Z,98091.69
2023-03-25T22:47:47.092Z,98095.56
2023-03-25T22:49:49.688Z,98093.28
2023-03-25T22:51:52.684Z,98090.19
2023-03-25T22:53:55.559Z,98094.88
2023-03-25T22:55:58.180Z,98087.78
2023-03-25T22:58:01.469Z,98093.28
2023-03-25T23:00:14.446Z,98093.28
2023-03-25T23:02:17.439Z,98086.22
2023-03-25T23:04:20.099Z,98095.69
2023-03-25T23:06:24.369Z,98091.34
2023-03-25T23:08:31.836Z,98080.00
2023-03-25T23:10:34.762Z,98083.91
2023-03-25T23:12:37.355Z,98080.38
2023-03-25T23:14:41.659Z,98079.66
2023-03-25T23:16:44.265Z,98079.66
2023-03-25T23:18:47.420Z,98077.72
2023-03-25T23:20:50.053Z,98079.66
2023-03-25T23:22:52.687Z,98081.50
2023-03-25T23:24:59.271Z,98086.66
2023-03-25T23:27:05.288Z,98083.00
2023-03-25T23:29:11.131Z,98072.38
2023-03-25T23:31:19.224Z,98075.50
2023-03-25T23:33:21.903Z,98090.78
2023-03-25T23:35:24.758Z,98078.91
2023-03-25T23:37:27.770Z,98082.13
2023-03-25T23:39:31.143Z,98089.56
2023-03-25T23:41:34.804Z,98083.72
2023-03-25T23:43:37.871Z,98083.72
2023-03-25T23:45:42.243Z,98078.25
2023-03-25T23:47:44.914Z,98080.16
2023-03-25T23:49:47.583Z,98084.06
2023-03-25T23:51:51.312Z,98088.38
2023-03-25T23:53:54.058Z,98084.06
2023-03-25T23:55:56.894Z,98086.81
2023-03-25T23:57:59.716Z,98084.78
